Fruitvale, Idaho
Current Conditions -  °F | °C
As of 4:51 AM on Tuesday 27 Jan 2015 (Local Time) from KMYL Reporting Station
Clear Clear  
Wind Chill: 21°   Ceiling: Unl
Heat Index: 21°   Visibility: 8mi
Dew Point: 18°   Wind: 0mph
Humidity: 88%   Direction: NA
Pressure: 30.06"   Gusts: NA
Location:  44.82°N, 116.44°W
Report Text: KMYL 271151Z AUTO 00000KT 8SM CLR M06/M08 A3006 RMK AO2 SLP201 T10611078 11028 21067 56007
Loading
Personal Weather Stations






























Interactive Weather Map New forecast layout! Learn more

10-Day Weather Forecast

Advertisements
Track Severe Weather on mobile